sensor_id;sensor_type;location;lat;lon;timestamp;P1;durP1;ratioP1;P2;durP2;ratioP2
10554;SDS011;5326;51.522;7.388;2023-01-10T00:00:23;16.40;;;6.77;;
10554;SDS011;5326;51.522;7.388;2023-01-10T00:02:52;14.70;;;7.10;;
10554;SDS011;5326;51.522;7.388;2023-01-10T00:05:19;17.83;;;6.83;;
10554;SDS011;5326;51.522;7.388;2023-01-10T00:07:46;15.20;;;7.60;;
10554;SDS011;5326;51.522;7.388;2023-01-10T00:10:13;18.37;;;7.57;;
10554;SDS011;5326;51.522;7.388;2023-01-10T00:12:39;19.73;;;8.47;;
10554;SDS011;5326;51.522;7.388;2023-01-10T00:15:24;15.67;;;8.03;;
10554;SDS011;5326;51.522;7.388;2023-01-10T00:17:51;19.87;;;8.10;;
10554;SDS011;5326;51.522;7.388;2023-01-10T00:20:18;12.97;;;7.50;;
10554;SDS011;5326;51.522;7.388;2023-01-10T00:22:45;14.30;;;7.77;;
10554;SDS011;5326;51.522;7.388;2023-01-10T00:25:13;14.27;;;7.47;;
10554;SDS011;5326;51.522;7.388;2023-01-10T00:27:39;22.00;;;7.90;;
10554;SDS011;5326;51.522;7.388;2023-01-10T00:30:07;20.10;;;8.03;;
10554;SDS011;5326;51.522;7.388;2023-01-10T00:32:40;14.83;;;7.87;;
10554;SDS011;5326;51.522;7.388;2023-01-10T00:35:08;20.10;;;7.50;;
10554;SDS011;5326;51.522;7.388;2023-01-10T00:37:36;11.90;;;6.97;;
10554;SDS011;5326;51.522;7.388;2023-01-10T00:40:05;23.93;;;7.97;;
10554;SDS011;5326;51.522;7.388;2023-01-10T00:42:34;18.13;;;7.53;;
10554;SDS011;5326;51.522;7.388;2023-01-10T00:45:21;15.10;;;7.43;;
10554;SDS011;5326;51.522;7.388;2023-01-10T00:47:50;16.63;;;6.73;;
10554;SDS011;5326;51.522;7.388;2023-01-10T00:50:17;16.90;;;7.13;;
10554;SDS011;5326;51.522;7.388;2023-01-10T00:52:44;15.13;;;6.93;;
10554;SDS011;5326;51.522;7.388;2023-01-10T00:55:11;10.43;;;6.07;;
10554;SDS011;5326;51.522;7.388;2023-01-10T00:57:37;17.87;;;6.80;;
10554;SDS011;5326;51.522;7.388;2023-01-10T01:00:04;15.87;;;6.60;;
10554;SDS011;5326;51.522;7.388;2023-01-10T01:02:35;18.17;;;6.63;;
10554;SDS011;5326;51.522;7.388;2023-01-10T01:05:02;16.30;;;6.57;;
10554;SDS011;5326;51.522;7.388;2023-01-10T01:07:29;13.43;;;6.70;;
10554;SDS011;5326;51.522;7.388;2023-01-10T01:09:56;15.67;;;6.70;;
10554;SDS011;5326;51.522;7.388;2023-01-10T01:12:41;15.10;;;6.57;;
10554;SDS011;5326;51.522;7.388;2023-01-10T01:15:07;14.03;;;7.20;;
10554;SDS011;5326;51.522;7.388;2023-01-10T01:17:34;17.67;;;7.13;;
10554;SDS011;5326;51.522;7.388;2023-01-10T01:20:01;11.07;;;6.03;;
10554;SDS011;5326;51.522;7.388;2023-01-10T01:22:28;15.00;;;6.30;;
10554;SDS011;5326;51.522;7.388;2023-01-10T01:24:54;13.73;;;6.57;;
10554;SDS011;5326;51.522;7.388;2023-01-10T01:27:21;14.20;;;6.27;;
10554;SDS011;5326;51.522;7.388;2023-01-10T01:29:48;14.90;;;6.33;;
10554;SDS011;5326;51.522;7.388;2023-01-10T01:32:14;13.57;;;6.13;;
10554;SDS011;5326;51.522;7.388;2023-01-10T01:34:41;19.90;;;7.00;;
10554;SDS011;5326;51.522;7.388;2023-01-10T01:37:08;14.00;;;5.67;;
10554;SDS011;5326;51.522;7.388;2023-01-10T01:39:34;15.70;;;5.57;;
10554;SDS011;5326;51.522;7.388;2023-01-10T01:42:01;20.60;;;6.00;;
10554;SDS011;5326;51.522;7.388;2023-01-10T01:44:29;16.03;;;6.03;;
10554;SDS011;5326;51.522;7.388;2023-01-10T01:47:03;16.13;;;5.07;;
10554;SDS011;5326;51.522;7.388;2023-01-10T01:49:33;12.83;;;5.33;;
10554;SDS011;5326;51.522;7.388;2023-01-10T01:52:05;13.47;;;4.87;;
10554;SDS011;5326;51.522;7.388;2023-01-10T01:54:35;14.90;;;5.40;;
10554;SDS011;5326;51.522;7.388;2023-01-10T01:57:03;15.93;;;5.70;;
10554;SDS011;5326;51.522;7.388;2023-01-10T01:59:33;16.70;;;5.90;;
10554;SDS011;5326;51.522;7.388;2023-01-10T02:02:04;12.23;;;5.00;;
10554;SDS011;5326;51.522;7.388;2023-01-10T02:04:37;14.13;;;5.30;;
10554;SDS011;5326;51.522;7.388;2023-01-10T02:07:06;19.03;;;4.63;;
10554;SDS011;5326;51.522;7.388;2023-01-10T02:09:38;19.00;;;5.53;;
10554;SDS011;5326;51.522;7.388;2023-01-10T02:12:07;15.83;;;4.53;;
10554;SDS011;5326;51.522;7.388;2023-01-10T02:14:34;15.27;;;5.17;;
10554;SDS011;5326;51.522;7.388;2023-01-10T02:17:01;13.87;;;4.93;;
10554;SDS011;5326;51.522;7.388;2023-01-10T02:19:31;17.97;;;4.70;;
10554;SDS011;5326;51.522;7.388;2023-01-10T02:27:32;17.40;;;5.07;;
10554;SDS011;5326;51.522;7.388;2023-01-10T02:43:23;15.03;;;4.90;;
10554;SDS011;5326;51.522;7.388;2023-01-10T02:46:15;19.23;;;4.33;;
10554;SDS011;5326;51.522;7.388;2023-01-10T02:48:46;13.90;;;4.00;;
10554;SDS011;5326;51.522;7.388;2023-01-10T02:51:16;12.70;;;4.17;;
10554;SDS011;5326;51.522;7.388;2023-01-10T02:53:46;15.27;;;3.77;;
10554;SDS011;5326;51.522;7.388;2023-01-10T02:56:33;8.97;;;3.53;;
10554;SDS011;5326;51.522;7.388;2023-01-10T03:15:30;10.97;;;3.13;;
10554;SDS011;5326;51.522;7.388;2023-01-10T03:17:59;9.43;;;3.30;;
10554;SDS011;5326;51.522;7.388;2023-01-10T03:20:28;9.60;;;3.23;;
10554;SDS011;5326;51.522;7.388;2023-01-10T03:22:58;10.53;;;3.50;;
10554;SDS011;5326;51.522;7.388;2023-01-10T03:25:27;11.23;;;3.40;;
10554;SDS011;5326;51.522;7.388;2023-01-10T03:28:01;18.03;;;4.00;;
10554;SDS011;5326;51.522;7.388;2023-01-10T03:33:20;14.10;;;3.90;;
10554;SDS011;5326;51.522;7.388;2023-01-10T03:38:46;20.47;;;3.13;;
10554;SDS011;5326;51.522;7.388;2023-01-10T03:47:18;17.03;;;3.93;;
10554;SDS011;5326;51.522;7.388;2023-01-10T03:49:52;13.13;;;3.50;;
10554;SDS011;5326;51.522;7.388;2023-01-10T03:52:20;16.63;;;3.80;;
10554;SDS011;5326;51.522;7.388;2023-01-10T03:54:47;11.50;;;3.43;;
10554;SDS011;5326;51.522;7.388;2023-01-10T03:57:17;15.33;;;3.47;;
10554;SDS011;5326;51.522;7.388;2023-01-10T03:59:49;18.70;;;4.00;;
10554;SDS011;5326;51.522;7.388;2023-01-10T04:02:18;12.67;;;3.50;;
10554;SDS011;5326;51.522;7.388;2023-01-10T04:04:45;17.57;;;5.83;;
10554;SDS011;5326;51.522;7.388;2023-01-10T04:07:12;15.60;;;4.50;;
10554;SDS011;5326;51.522;7.388;2023-01-10T04:09:38;13.83;;;4.50;;
10554;SDS011;5326;51.522;7.388;2023-01-10T04:12:05;12.83;;;4.43;;
10554;SDS011;5326;51.522;7.388;2023-01-10T04:14:32;15.80;;;4.00;;
10554;SDS011;5326;51.522;7.388;2023-01-10T04:16:59;13.93;;;3.97;;
10554;SDS011;5326;51.522;7.388;2023-01-10T04:19:25;18.03;;;4.13;;
10554;SDS011;5326;51.522;7.388;2023-01-10T04:21:53;14.47;;;4.07;;
10554;SDS011;5326;51.522;7.388;2023-01-10T04:24:19;13.70;;;3.93;;
10554;SDS011;5326;51.522;7.388;2023-01-10T04:26:46;14.23;;;4.20;;
10554;SDS011;5326;51.522;7.388;2023-01-10T04:29:13;18.03;;;4.00;;
10554;SDS011;5326;51.522;7.388;2023-01-10T04:31:39;12.17;;;3.83;;
10554;SDS011;5326;51.522;7.388;2023-01-10T04:34:07;11.57;;;3.83;;
10554;SDS011;5326;51.522;7.388;2023-01-10T04:36:34;10.90;;;3.93;;
10554;SDS011;5326;51.522;7.388;2023-01-10T04:39:02;16.03;;;3.70;;
10554;SDS011;5326;51.522;7.388;2023-01-10T04:41:29;13.17;;;3.73;;
10554;SDS011;5326;51.522;7.388;2023-01-10T04:43:55;15.47;;;3.70;;
10554;SDS011;5326;51.522;7.388;2023-01-10T04:46:22;11.77;;;3.70;;
10554;SDS011;5326;51.522;7.388;2023-01-10T04:48:49;12.90;;;4.00;;
10554;SDS011;5326;51.522;7.388;2023-01-10T04:51:15;11.97;;;3.63;;
10554;SDS011;5326;51.522;7.388;2023-01-10T04:53:42;12.77;;;3.47;;
10554;SDS011;5326;51.522;7.388;2023-01-10T04:56:09;13.50;;;3.33;;
10554;SDS011;5326;51.522;7.388;2023-01-10T04:58:41;11.77;;;3.17;;
10554;SDS011;5326;51.522;7.388;2023-01-10T05:01:09;11.60;;;3.87;;
10554;SDS011;5326;51.522;7.388;2023-01-10T05:03:36;12.17;;;3.73;;
10554;SDS011;5326;51.522;7.388;2023-01-10T05:06:04;14.03;;;3.60;;
10554;SDS011;5326;51.522;7.388;2023-01-10T05:08:31;10.10;;;3.60;;
10554;SDS011;5326;51.522;7.388;2023-01-10T05:10:57;13.23;;;3.50;;
10554;SDS011;5326;51.522;7.388;2023-01-10T05:13:24;13.90;;;3.30;;
10554;SDS011;5326;51.522;7.388;2023-01-10T05:15:55;15.80;;;3.87;;
10554;SDS011;5326;51.522;7.388;2023-01-10T05:18:26;14.00;;;3.30;;
10554;SDS011;5326;51.522;7.388;2023-01-10T05:21:01;14.13;;;3.50;;
10554;SDS011;5326;51.522;7.388;2023-01-10T05:23:29;10.87;;;2.93;;
10554;SDS011;5326;51.522;7.388;2023-01-10T05:25:56;16.20;;;4.10;;
10554;SDS011;5326;51.522;7.388;2023-01-10T05:28:23;11.13;;;3.13;;
10554;SDS011;5326;51.522;7.388;2023-01-10T05:30:50;11.87;;;3.67;;
10554;SDS011;5326;51.522;7.388;2023-01-10T05:33:16;10.23;;;3.43;;
10554;SDS011;5326;51.522;7.388;2023-01-10T05:35:43;11.60;;;3.07;;
10554;SDS011;5326;51.522;7.388;2023-01-10T05:38:10;13.20;;;3.33;;
10554;SDS011;5326;51.522;7.388;2023-01-10T05:40:36;18.73;;;4.17;;
10554;SDS011;5326;51.522;7.388;2023-01-10T05:43:03;12.67;;;3.47;;
10554;SDS011;5326;51.522;7.388;2023-01-10T05:45:30;19.27;;;4.53;;
10554;SDS011;5326;51.522;7.388;2023-01-10T05:47:56;12.17;;;3.00;;
10554;SDS011;5326;51.522;7.388;2023-01-10T05:50:23;17.17;;;3.63;;
10554;SDS011;5326;51.522;7.388;2023-01-10T05:52:50;14.67;;;3.60;;
10554;SDS011;5326;51.522;7.388;2023-01-10T05:55:16;14.77;;;3.87;;
10554;SDS011;5326;51.522;7.388;2023-01-10T05:57:43;13.90;;;3.30;;
10554;SDS011;5326;51.522;7.388;2023-01-10T06:00:10;17.93;;;3.57;;
10554;SDS011;5326;51.522;7.388;2023-01-10T06:02:37;16.77;;;3.53;;
10554;SDS011;5326;51.522;7.388;2023-01-10T06:05:04;15.33;;;4.13;;
10554;SDS011;5326;51.522;7.388;2023-01-10T06:07:31;12.27;;;4.00;;
10554;SDS011;5326;51.522;7.388;2023-01-10T06:09:57;15.27;;;3.40;;
10554;SDS011;5326;51.522;7.388;2023-01-10T06:12:24;12.27;;;3.37;;
10554;SDS011;5326;51.522;7.388;2023-01-10T06:14:51;12.93;;;3.50;;
10554;SDS011;5326;51.522;7.388;2023-01-10T06:17:18;16.20;;;4.07;;
10554;SDS011;5326;51.522;7.388;2023-01-10T06:19:44;19.90;;;3.67;;
10554;SDS011;5326;51.522;7.388;2023-01-10T06:22:11;19.10;;;3.80;;
10554;SDS011;5326;51.522;7.388;2023-01-10T06:24:37;14.03;;;4.13;;
10554;SDS011;5326;51.522;7.388;2023-01-10T06:27:04;23.00;;;3.87;;
10554;SDS011;5326;51.522;7.388;2023-01-10T06:29:31;12.30;;;3.73;;
10554;SDS011;5326;51.522;7.388;2023-01-10T06:31:58;18.23;;;4.37;;
10554;SDS011;5326;51.522;7.388;2023-01-10T06:34:25;19.77;;;4.00;;
10554;SDS011;5326;51.522;7.388;2023-01-10T06:36:52;26.23;;;3.70;;
10554;SDS011;5326;51.522;7.388;2023-01-10T06:39:19;18.37;;;4.07;;
10554;SDS011;5326;51.522;7.388;2023-01-10T06:41:45;17.10;;;3.47;;
10554;SDS011;5326;51.522;7.388;2023-01-10T06:44:12;18.67;;;4.33;;
10554;SDS011;5326;51.522;7.388;2023-01-10T06:46:39;14.27;;;4.20;;
10554;SDS011;5326;51.522;7.388;2023-01-10T06:49:05;18.50;;;4.43;;
10554;SDS011;5326;51.522;7.388;2023-01-10T06:51:32;15.30;;;3.77;;
10554;SDS011;5326;51.522;7.388;2023-01-10T06:53:59;10.70;;;3.67;;
10554;SDS011;5326;51.522;7.388;2023-01-10T06:56:25;18.70;;;4.63;;
10554;SDS011;5326;51.522;7.388;2023-01-10T06:58:52;19.40;;;4.07;;
10554;SDS011;5326;51.522;7.388;2023-01-10T07:01:19;20.90;;;4.33;;
10554;SDS011;5326;51.522;7.388;2023-01-10T07:03:47;19.20;;;4.27;;
10554;SDS011;5326;51.522;7.388;2023-01-10T07:06:14;22.00;;;3.80;;
10554;SDS011;5326;51.522;7.388;2023-01-10T07:08:42;17.93;;;4.13;;
10554;SDS011;5326;51.522;7.388;2023-01-10T07:11:11;18.37;;;4.37;;
10554;SDS011;5326;51.522;7.388;2023-01-10T07:13:38;23.90;;;5.37;;
10554;SDS011;5326;51.522;7.388;2023-01-10T07:16:06;27.93;;;5.83;;
10554;SDS011;5326;51.522;7.388;2023-01-10T07:18:38;16.50;;;4.30;;
10554;SDS011;5326;51.522;7.388;2023-01-10T07:21:05;17.00;;;4.67;;
10554;SDS011;5326;51.522;7.388;2023-01-10T07:23:32;23.47;;;4.90;;
10554;SDS011;5326;51.522;7.388;2023-01-10T07:26:09;18.97;;;4.50;;
10554;SDS011;5326;51.522;7.388;2023-01-10T07:28:36;22.20;;;4.80;;
10554;SDS011;5326;51.522;7.388;2023-01-10T07:31:03;21.53;;;5.07;;
10554;SDS011;5326;51.522;7.388;2023-01-10T07:33:31;21.43;;;4.87;;
10554;SDS011;5326;51.522;7.388;2023-01-10T07:35:58;24.23;;;5.33;;
10554;SDS011;5326;51.522;7.388;2023-01-10T07:38:26;17.40;;;4.33;;
10554;SDS011;5326;51.522;7.388;2023-01-10T07:40:53;21.73;;;4.67;;
10554;SDS011;5326;51.522;7.388;2023-01-10T07:43:19;28.47;;;5.90;;
10554;SDS011;5326;51.522;7.388;2023-01-10T07:45:46;19.50;;;5.10;;
10554;SDS011;5326;51.522;7.388;2023-01-10T07:48:12;25.23;;;5.43;;
10554;SDS011;5326;51.522;7.388;2023-01-10T07:50:39;18.50;;;5.17;;
10554;SDS011;5326;51.522;7.388;2023-01-10T07:53:06;28.03;;;4.80;;
10554;SDS011;5326;51.522;7.388;2023-01-10T07:55:34;20.33;;;5.13;;
10554;SDS011;5326;51.522;7.388;2023-01-10T07:58:04;27.43;;;5.33;;
10554;SDS011;5326;51.522;7.388;2023-01-10T08:00:35;22.93;;;4.90;;
10554;SDS011;5326;51.522;7.388;2023-01-10T08:03:02;17.33;;;4.93;;
10554;SDS011;5326;51.522;7.388;2023-01-10T08:05:29;18.87;;;4.93;;
10554;SDS011;5326;51.522;7.388;2023-01-10T08:07:56;24.17;;;5.20;;
10554;SDS011;5326;51.522;7.388;2023-01-10T08:10:25;19.77;;;4.90;;
10554;SDS011;5326;51.522;7.388;2023-01-10T08:12:52;27.90;;;5.70;;
10554;SDS011;5326;51.522;7.388;2023-01-10T08:15:19;25.97;;;4.80;;
10554;SDS011;5326;51.522;7.388;2023-01-10T08:17:45;21.73;;;5.30;;
10554;SDS011;5326;51.522;7.388;2023-01-10T08:20:12;23.73;;;5.93;;
10554;SDS011;5326;51.522;7.388;2023-01-10T08:22:39;29.20;;;4.63;;
10554;SDS011;5326;51.522;7.388;2023-01-10T08:25:06;28.00;;;6.13;;
10554;SDS011;5326;51.522;7.388;2023-01-10T08:27:33;24.70;;;5.30;;
10554;SDS011;5326;51.522;7.388;2023-01-10T08:30:00;24.07;;;5.20;;
10554;SDS011;5326;51.522;7.388;2023-01-10T08:32:27;23.70;;;5.10;;
10554;SDS011;5326;51.522;7.388;2023-01-10T08:34:53;23.47;;;5.40;;
10554;SDS011;5326;51.522;7.388;2023-01-10T08:37:20;21.87;;;5.20;;
10554;SDS011;5326;51.522;7.388;2023-01-10T08:39:46;23.73;;;5.53;;
10554;SDS011;5326;51.522;7.388;2023-01-10T08:42:13;26.43;;;5.77;;
10554;SDS011;5326;51.522;7.388;2023-01-10T08:44:42;21.23;;;5.20;;
10554;SDS011;5326;51.522;7.388;2023-01-10T08:47:08;25.30;;;5.53;;
10554;SDS011;5326;51.522;7.388;2023-01-10T08:49:35;25.77;;;5.73;;
10554;SDS011;5326;51.522;7.388;2023-01-10T08:52:02;27.53;;;5.37;;
10554;SDS011;5326;51.522;7.388;2023-01-10T08:54:28;21.40;;;4.90;;
10554;SDS011;5326;51.522;7.388;2023-01-10T08:56:55;25.67;;;5.43;;
10554;SDS011;5326;51.522;7.388;2023-01-10T08:59:22;26.90;;;5.47;;
10554;SDS011;5326;51.522;7.388;2023-01-10T09:01:49;21.27;;;5.27;;
10554;SDS011;5326;51.522;7.388;2023-01-10T09:04:15;25.63;;;5.23;;
10554;SDS011;5326;51.522;7.388;2023-01-10T09:06:42;27.90;;;5.67;;
10554;SDS011;5326;51.522;7.388;2023-01-10T09:09:09;22.93;;;5.30;;
10554;SDS011;5326;51.522;7.388;2023-01-10T09:11:36;29.83;;;6.00;;
10554;SDS011;5326;51.522;7.388;2023-01-10T09:14:02;26.57;;;4.67;;
10554;SDS011;5326;51.522;7.388;2023-01-10T09:16:29;27.97;;;6.17;;
10554;SDS011;5326;51.522;7.388;2023-01-10T09:18:56;27.43;;;5.90;;
10554;SDS011;5326;51.522;7.388;2023-01-10T09:21:22;29.30;;;4.87;;
10554;SDS011;5326;51.522;7.388;2023-01-10T09:23:49;29.73;;;5.83;;
10554;SDS011;5326;51.522;7.388;2023-01-10T09:26:15;27.20;;;4.90;;
10554;SDS011;5326;51.522;7.388;2023-01-10T09:28:42;22.47;;;4.80;;
10554;SDS011;5326;51.522;7.388;2023-01-10T09:31:09;24.73;;;5.50;;
10554;SDS011;5326;51.522;7.388;2023-01-10T09:33:37;30.27;;;5.53;;
10554;SDS011;5326;51.522;7.388;2023-01-10T09:36:12;22.90;;;4.93;;
10554;SDS011;5326;51.522;7.388;2023-01-10T09:38:40;27.57;;;5.27;;
10554;SDS011;5326;51.522;7.388;2023-01-10T09:41:16;29.50;;;5.60;;
10554;SDS011;5326;51.522;7.388;2023-01-10T09:49:35;26.97;;;6.03;;
10554;SDS011;5326;51.522;7.388;2023-01-10T09:57:50;23.70;;;5.53;;
10554;SDS011;5326;51.522;7.388;2023-01-10T10:00:19;24.13;;;5.13;;
10554;SDS011;5326;51.522;7.388;2023-01-10T10:02:49;24.33;;;5.37;;
10554;SDS011;5326;51.522;7.388;2023-01-10T10:05:22;18.17;;;4.87;;
10554;SDS011;5326;51.522;7.388;2023-01-10T10:07:51;25.57;;;5.00;;
10554;SDS011;5326;51.522;7.388;2023-01-10T10:10:21;26.23;;;5.60;;
10554;SDS011;5326;51.522;7.388;2023-01-10T10:28:37;26.83;;;5.47;;
10554;SDS011;5326;51.522;7.388;2023-01-10T10:36:48;20.07;;;4.57;;
10554;SDS011;5326;51.522;7.388;2023-01-10T10:39:20;30.10;;;5.60;;
10554;SDS011;5326;51.522;7.388;2023-01-10T10:41:57;25.77;;;5.70;;
10554;SDS011;5326;51.522;7.388;2023-01-10T10:44:38;19.33;;;5.60;;
10554;SDS011;5326;51.522;7.388;2023-01-10T10:47:11;25.13;;;4.57;;
10554;SDS011;5326;51.522;7.388;2023-01-10T10:49:42;24.33;;;5.03;;
10554;SDS011;5326;51.522;7.388;2023-01-10T10:54:52;21.07;;;5.03;;
10554;SDS011;5326;51.522;7.388;2023-01-10T10:57:20;20.90;;;4.53;;
10554;SDS011;5326;51.522;7.388;2023-01-10T10:59:49;21.17;;;4.90;;
10554;SDS011;5326;51.522;7.388;2023-01-10T11:02:30;26.63;;;5.40;;
10554;SDS011;5326;51.522;7.388;2023-01-10T11:04:59;23.27;;;4.60;;
10554;SDS011;5326;51.522;7.388;2023-01-10T11:07:28;20.07;;;4.30;;
10554;SDS011;5326;51.522;7.388;2023-01-10T11:10:01;29.00;;;5.87;;
10554;SDS011;5326;51.522;7.388;2023-01-10T11:12:43;21.43;;;4.90;;
10554;SDS011;5326;51.522;7.388;2023-01-10T11:18:05;19.67;;;4.33;;
10554;SDS011;5326;51.522;7.388;2023-01-10T11:20:34;20.80;;;4.90;;
10554;SDS011;5326;51.522;7.388;2023-01-10T11:23:02;27.10;;;5.07;;
10554;SDS011;5326;51.522;7.388;2023-01-10T11:25:28;27.03;;;4.67;;
10554;SDS011;5326;51.522;7.388;2023-01-10T11:27:58;21.87;;;4.53;;
10554;SDS011;5326;51.522;7.388;2023-01-10T11:30:30;21.00;;;5.17;;
10554;SDS011;5326;51.522;7.388;2023-01-10T11:33:02;21.27;;;4.23;;
10554;SDS011;5326;51.522;7.388;2023-01-10T11:35:34;19.43;;;4.73;;
10554;SDS011;5326;51.522;7.388;2023-01-10T11:40:34;23.33;;;5.30;;
10554;SDS011;5326;51.522;7.388;2023-01-10T11:43:23;21.10;;;4.30;;
10554;SDS011;5326;51.522;7.388;2023-01-10T11:45:52;22.60;;;4.83;;
10554;SDS011;5326;51.522;7.388;2023-01-10T11:48:39;18.20;;;4.90;;
10554;SDS011;5326;51.522;7.388;2023-01-10T11:51:27;26.10;;;5.17;;
10554;SDS011;5326;51.522;7.388;2023-01-10T11:53:59;34.03;;;5.63;;
10554;SDS011;5326;51.522;7.388;2023-01-10T11:56:31;24.57;;;4.93;;
10554;SDS011;5326;51.522;7.388;2023-01-10T11:59:05;20.43;;;4.60;;
10554;SDS011;5326;51.522;7.388;2023-01-10T12:01:47;15.60;;;4.40;;
10554;SDS011;5326;51.522;7.388;2023-01-10T12:04:28;25.17;;;5.00;;
10554;SDS011;5326;51.522;7.388;2023-01-10T12:06:58;21.27;;;4.10;;
10554;SDS011;5326;51.522;7.388;2023-01-10T12:09:37;27.67;;;4.97;;
10554;SDS011;5326;51.522;7.388;2023-01-10T12:14:43;18.73;;;4.80;;
10554;SDS011;5326;51.522;7.388;2023-01-10T12:19:51;26.40;;;4.73;;
10554;SDS011;5326;51.522;7.388;2023-01-10T12:22:19;21.23;;;5.07;;
10554;SDS011;5326;51.522;7.388;2023-01-10T12:24:50;18.17;;;4.73;;
10554;SDS011;5326;51.522;7.388;2023-01-10T12:27:18;23.20;;;5.03;;
10554;SDS011;5326;51.522;7.388;2023-01-10T12:30:09;26.20;;;5.23;;
10554;SDS011;5326;51.522;7.388;2023-01-10T12:32:35;25.17;;;4.60;;
10554;SDS011;5326;51.522;7.388;2023-01-10T12:35:09;20.00;;;4.47;;
10554;SDS011;5326;51.522;7.388;2023-01-10T12:37:41;27.20;;;4.43;;
10554;SDS011;5326;51.522;7.388;2023-01-10T12:40:28;28.20;;;5.57;;
10554;SDS011;5326;51.522;7.388;2023-01-10T12:43:12;25.87;;;4.57;;
10554;SDS011;5326;51.522;7.388;2023-01-10T12:46:08;22.17;;;4.97;;
10554;SDS011;5326;51.522;7.388;2023-01-10T12:49:02;26.50;;;4.70;;
10554;SDS011;5326;51.522;7.388;2023-01-10T12:51:39;26.10;;;4.23;;
10554;SDS011;5326;51.522;7.388;2023-01-10T12:54:17;20.27;;;4.40;;
10554;SDS011;5326;51.522;7.388;2023-01-10T12:56:46;26.43;;;4.57;;
10554;SDS011;5326;51.522;7.388;2023-01-10T13:02:03;26.40;;;4.70;;
10554;SDS011;5326;51.522;7.388;2023-01-10T13:04:33;20.70;;;4.13;;
10554;SDS011;5326;51.522;7.388;2023-01-10T13:07:03;21.70;;;4.77;;
10554;SDS011;5326;51.522;7.388;2023-01-10T13:09:30;19.80;;;4.80;;
10554;SDS011;5326;51.522;7.388;2023-01-10T13:11:58;22.50;;;4.20;;
10554;SDS011;5326;51.522;7.388;2023-01-10T13:14:40;16.87;;;4.20;;
10554;SDS011;5326;51.522;7.388;2023-01-10T13:22:50;20.00;;;3.80;;
10554;SDS011;5326;51.522;7.388;2023-01-10T13:28:01;26.13;;;4.03;;
10554;SDS011;5326;51.522;7.388;2023-01-10T13:33:04;25.00;;;4.70;;
10554;SDS011;5326;51.522;7.388;2023-01-10T13:35:47;20.10;;;3.90;;
10554;SDS011;5326;51.522;7.388;2023-01-10T13:41:03;15.93;;;4.13;;
10554;SDS011;5326;51.522;7.388;2023-01-10T13:46:48;13.20;;;3.43;;
10554;SDS011;5326;51.522;7.388;2023-01-10T13:51:16;20.10;;;3.87;;
10554;SDS011;5326;51.522;7.388;2023-01-10T13:53:52;22.77;;;3.97;;
10554;SDS011;5326;51.522;7.388;2023-01-10T14:02:15;18.10;;;3.60;;
10554;SDS011;5326;51.522;7.388;2023-01-10T14:05:15;15.30;;;3.60;;
10554;SDS011;5326;51.522;7.388;2023-01-10T14:07:49;10.87;;;3.20;;
10554;SDS011;5326;51.522;7.388;2023-01-10T14:12:50;18.43;;;3.57;;
10554;SDS011;5326;51.522;7.388;2023-01-10T14:15:27;17.13;;;3.50;;
10554;SDS011;5326;51.522;7.388;2023-01-10T14:20:28;12.53;;;3.27;;
10554;SDS011;5326;51.522;7.388;2023-01-10T14:25:32;14.50;;;3.83;;
10554;SDS011;5326;51.522;7.388;2023-01-10T14:28:00;16.43;;;3.80;;
10554;SDS011;5326;51.522;7.388;2023-01-10T14:30:34;16.07;;;3.60;;
10554;SDS011;5326;51.522;7.388;2023-01-10T14:33:12;15.13;;;3.23;;
10554;SDS011;5326;51.522;7.388;2023-01-10T14:35:44;13.10;;;3.10;;
10554;SDS011;5326;51.522;7.388;2023-01-10T14:38:34;16.17;;;3.80;;
10554;SDS011;5326;51.522;7.388;2023-01-10T14:41:04;21.63;;;3.63;;
10554;SDS011;5326;51.522;7.388;2023-01-10T14:44:09;19.10;;;3.33;;
10554;SDS011;5326;51.522;7.388;2023-01-10T14:46:41;15.97;;;3.60;;
10554;SDS011;5326;51.522;7.388;2023-01-10T14:49:24;15.47;;;3.13;;
10554;SDS011;5326;51.522;7.388;2023-01-10T14:52:09;18.10;;;3.37;;
10554;SDS011;5326;51.522;7.388;2023-01-10T14:54:42;15.37;;;3.70;;
10554;SDS011;5326;51.522;7.388;2023-01-10T14:57:21;11.67;;;3.03;;
10554;SDS011;5326;51.522;7.388;2023-01-10T14:59:49;16.20;;;3.57;;
10554;SDS011;5326;51.522;7.388;2023-01-10T15:02:23;14.43;;;3.27;;
10554;SDS011;5326;51.522;7.388;2023-01-10T15:04:54;12.87;;;3.20;;
10554;SDS011;5326;51.522;7.388;2023-01-10T15:07:23;13.87;;;3.07;;
10554;SDS011;5326;51.522;7.388;2023-01-10T15:09:54;17.93;;;3.80;;
10554;SDS011;5326;51.522;7.388;2023-01-10T15:12:23;10.80;;;3.23;;
10554;SDS011;5326;51.522;7.388;2023-01-10T15:15:02;17.53;;;4.13;;
10554;SDS011;5326;51.522;7.388;2023-01-10T15:17:32;18.70;;;3.20;;
10554;SDS011;5326;51.522;7.388;2023-01-10T15:20:00;13.90;;;3.37;;
10554;SDS011;5326;51.522;7.388;2023-01-10T15:22:30;14.13;;;3.17;;
10554;SDS011;5326;51.522;7.388;2023-01-10T15:27:46;13.07;;;2.70;;
10554;SDS011;5326;51.522;7.388;2023-01-10T15:30:19;14.63;;;3.43;;
10554;SDS011;5326;51.522;7.388;2023-01-10T15:32:50;13.30;;;2.90;;
10554;SDS011;5326;51.522;7.388;2023-01-10T15:35:20;12.80;;;3.23;;
10554;SDS011;5326;51.522;7.388;2023-01-10T15:37:58;17.23;;;3.53;;
10554;SDS011;5326;51.522;7.388;2023-01-10T15:40:30;13.73;;;3.27;;
10554;SDS011;5326;51.522;7.388;2023-01-10T15:45:44;20.93;;;3.53;;
10554;SDS011;5326;51.522;7.388;2023-01-10T15:53:48;14.97;;;3.23;;
10554;SDS011;5326;51.522;7.388;2023-01-10T15:59:00;19.30;;;3.50;;
10554;SDS011;5326;51.522;7.388;2023-01-10T16:01:28;15.20;;;3.30;;
10554;SDS011;5326;51.522;7.388;2023-01-10T16:03:57;15.27;;;3.27;;
10554;SDS011;5326;51.522;7.388;2023-01-10T16:09:01;12.60;;;3.30;;
10554;SDS011;5326;51.522;7.388;2023-01-10T16:11:37;11.67;;;2.83;;
10554;SDS011;5326;51.522;7.388;2023-01-10T16:14:24;13.33;;;3.10;;
10554;SDS011;5326;51.522;7.388;2023-01-10T16:16:51;16.07;;;3.67;;
10554;SDS011;5326;51.522;7.388;2023-01-10T16:19:17;12.33;;;3.03;;
10554;SDS011;5326;51.522;7.388;2023-01-10T16:21:45;12.50;;;3.40;;
10554;SDS011;5326;51.522;7.388;2023-01-10T16:24:19;12.10;;;2.77;;
10554;SDS011;5326;51.522;7.388;2023-01-10T16:26:48;14.10;;;3.10;;
10554;SDS011;5326;51.522;7.388;2023-01-10T16:29:15;12.33;;;3.03;;
10554;SDS011;5326;51.522;7.388;2023-01-10T16:31:42;18.80;;;3.37;;
10554;SDS011;5326;51.522;7.388;2023-01-10T16:34:09;16.30;;;3.67;;
10554;SDS011;5326;51.522;7.388;2023-01-10T16:36:36;12.17;;;2.90;;
10554;SDS011;5326;51.522;7.388;2023-01-10T16:39:04;11.67;;;3.07;;
10554;SDS011;5326;51.522;7.388;2023-01-10T16:41:42;13.43;;;3.07;;
10554;SDS011;5326;51.522;7.388;2023-01-10T16:44:27;10.43;;;2.83;;
10554;SDS011;5326;51.522;7.388;2023-01-10T16:46:54;13.20;;;3.57;;
10554;SDS011;5326;51.522;7.388;2023-01-10T16:49:22;15.63;;;3.30;;
10554;SDS011;5326;51.522;7.388;2023-01-10T16:51:49;11.67;;;2.90;;
10554;SDS011;5326;51.522;7.388;2023-01-10T16:54:20;14.80;;;3.70;;
10554;SDS011;5326;51.522;7.388;2023-01-10T16:56:51;12.67;;;3.53;;
10554;SDS011;5326;51.522;7.388;2023-01-10T16:59:18;12.73;;;2.90;;
10554;SDS011;5326;51.522;7.388;2023-01-10T17:01:48;15.50;;;3.43;;
10554;SDS011;5326;51.522;7.388;2023-01-10T17:04:22;13.03;;;3.67;;
10554;SDS011;5326;51.522;7.388;2023-01-10T17:06:50;11.17;;;4.20;;
10554;SDS011;5326;51.522;7.388;2023-01-10T17:09:24;9.93;;;3.50;;
10554;SDS011;5326;51.522;7.388;2023-01-10T17:11:53;18.27;;;3.60;;
10554;SDS011;5326;51.522;7.388;2023-01-10T17:14:24;16.50;;;3.60;;
10554;SDS011;5326;51.522;7.388;2023-01-10T17:16:51;15.67;;;3.37;;
10554;SDS011;5326;51.522;7.388;2023-01-10T17:19:17;12.70;;;3.93;;
10554;SDS011;5326;51.522;7.388;2023-01-10T17:21:44;14.80;;;3.13;;
10554;SDS011;5326;51.522;7.388;2023-01-10T17:24:11;15.27;;;3.97;;
10554;SDS011;5326;51.522;7.388;2023-01-10T17:26:38;17.17;;;3.63;;
10554;SDS011;5326;51.522;7.388;2023-01-10T17:29:06;16.63;;;3.23;;